createdAt,value
2022-09-28T00:00:02.219Z,68.54
2022-09-28T00:02:50.723Z,68.68
2022-09-28T00:05:18.685Z,68.65
2022-09-28T00:07:46.599Z,68.84
2022-09-28T00:10:15.464Z,68.74
2022-09-28T00:12:43.420Z,68.72
2022-09-28T00:15:11.928Z,68.84
2022-09-28T00:17:39.868Z,68.79
2022-09-28T00:20:09.186Z,68.87
2022-09-28T00:22:37.326Z,68.87
2022-09-28T00:25:06.685Z,68.89
2022-09-28T00:27:34.654Z,68.82
2022-09-28T00:30:03.442Z,68.76
2022-09-28T00:32:31.487Z,68.78
2022-09-28T00:34:59.335Z,68.92
2022-09-28T00:37:27.479Z,68.99
2022-09-28T00:39:55.224Z,68.82
2022-09-28T00:42:24.274Z,68.89
2022-09-28T00:44:52.574Z,68.93
2022-09-28T00:47:25.063Z,68.97
2022-09-28T00:49:56.296Z,69.08
2022-09-28T00:52:27.970Z,68.95
2022-09-28T00:54:56.945Z,69.05
2022-09-28T00:57:25.515Z,69.09
2022-09-28T00:59:53.497Z,69.05
2022-09-28T01:02:21.533Z,69.19
2022-09-28T01:04:49.479Z,69.04
2022-09-28T01:07:17.728Z,69.17
2022-09-28T01:09:46.072Z,69.38
2022-09-28T01:12:14.144Z,69.27
2022-09-28T01:14:43.343Z,69.35
2022-09-28T01:17:13.992Z,69.27
2022-09-28T01:19:57.715Z,69.27
2022-09-28T01:22:31.146Z,69.46
2022-09-28T01:25:06.657Z,69.48
2022-09-28T01:27:38.519Z,69.54
2022-09-28T01:30:08.146Z,69.42
2022-09-28T01:32:40.810Z,69.33
2022-09-28T01:35:10.719Z,69.52
2022-09-28T01:37:42.848Z,69.64
2022-09-28T01:40:12.088Z,69.63
2022-09-28T01:42:41.286Z,69.46
2022-09-28T01:45:14.602Z,69.44
2022-09-28T01:47:43.679Z,69.66
2022-09-28T01:50:13.659Z,69.70
2022-09-28T01:52:45.453Z,69.86
2022-09-28T01:55:17.511Z,69.73
2022-09-28T01:57:48.449Z,69.78
2022-09-28T02:00:18.492Z,69.93
2022-09-28T02:02:48.304Z,69.75
2022-09-28T02:05:17.872Z,69.78
2022-09-28T02:07:50.573Z,69.92
2022-09-28T02:10:21.282Z,69.88
2022-09-28T02:12:51.956Z,70.04
2022-09-28T02:15:20.524Z,69.85
2022-09-28T02:17:49.126Z,69.90
2022-09-28T02:20:17.494Z,69.97
2022-09-28T02:22:48.338Z,69.78
2022-09-28T02:25:20.899Z,70.04
2022-09-28T02:27:51.647Z,70.05
2022-09-28T02:30:19.798Z,70.09
2022-09-28T02:32:49.117Z,70.00
2022-09-28T02:35:23.063Z,69.98
2022-09-28T02:37:51.119Z,70.20
2022-09-28T02:40:20.448Z,70.11
2022-09-28T02:42:53.901Z,70.10
2022-09-28T02:45:27.537Z,70.15
2022-09-28T02:48:04.226Z,70.16
2022-09-28T02:50:39.095Z,70.04
2022-09-28T02:53:17.205Z,70.35
2022-09-28T02:55:55.510Z,70.40
2022-09-28T02:58:32.710Z,70.36
2022-09-28T03:01:03.192Z,70.49
2022-09-28T03:03:37.808Z,70.27
2022-09-28T03:06:09.532Z,70.63
2022-09-28T03:08:39.439Z,70.40
2022-09-28T03:11:10.824Z,70.52
2022-09-28T03:13:39.043Z,70.50
2022-09-28T03:16:09.034Z,70.66
2022-09-28T03:18:36.887Z,70.68
2022-09-28T03:21:05.173Z,70.67
2022-09-28T03:23:33.105Z,70.74
2022-09-28T03:26:01.112Z,70.70
2022-09-28T03:28:29.112Z,70.67
2022-09-28T03:30:57.030Z,70.74
2022-09-28T03:33:24.972Z,70.80
2022-09-28T03:35:52.880Z,70.81
2022-09-28T03:38:20.729Z,70.68
2022-09-28T03:40:53.612Z,70.99
2022-09-28T03:43:21.960Z,70.78
2022-09-28T03:45:53.821Z,70.63
2022-09-28T03:48:25.120Z,70.66
2022-09-28T03:50:56.308Z,70.67
2022-09-28T03:53:24.907Z,70.79
2022-09-28T03:55:53.381Z,70.79
2022-09-28T03:58:21.650Z,70.59
2022-09-28T04:00:50.115Z,70.68
2022-09-28T04:03:21.123Z,70.72
2022-09-28T04:05:51.299Z,70.58
2022-09-28T04:08:19.128Z,70.68
2022-09-28T04:10:49.413Z,70.75
2022-09-28T04:13:17.407Z,70.60
2022-09-28T04:15:51.753Z,70.76
2022-09-28T04:18:20.249Z,70.63
2022-09-28T04:20:48.137Z,70.76
2022-09-28T04:23:16.175Z,70.72
2022-09-28T04:25:47.325Z,70.71
2022-09-28T04:28:33.551Z,70.73
2022-09-28T04:31:01.347Z,70.59
2022-09-28T04:33:29.467Z,70.68
2022-09-28T04:35:57.389Z,70.72
2022-09-28T04:38:41.847Z,70.81
2022-09-28T04:41:13.341Z,70.68
2022-09-28T04:43:46.339Z,70.67
2022-09-28T04:46:14.240Z,70.54
2022-09-28T04:48:42.124Z,70.72
2022-09-28T04:51:10.087Z,70.53
2022-09-28T04:53:37.891Z,70.62
2022-09-28T04:56:06.783Z,70.76
2022-09-28T04:58:35.750Z,70.86
2022-09-28T05:01:05.322Z,70.90
2022-09-28T05:03:33.708Z,70.85
2022-09-28T05:06:01.725Z,71.10
2022-09-28T05:08:29.776Z,71.07
2022-09-28T05:10:59.421Z,70.97
2022-09-28T05:13:27.827Z,71.24
2022-09-28T05:15:59.659Z,70.94
2022-09-28T05:18:30.101Z,70.79
2022-09-28T05:21:00.804Z,70.95
2022-09-28T05:23:28.683Z,70.88
2022-09-28T05:25:56.600Z,71.01
2022-09-28T05:28:27.904Z,70.90
2022-09-28T05:30:59.272Z,70.69
2022-09-28T05:33:27.268Z,70.56
2022-09-28T05:36:00.798Z,70.31
2022-09-28T05:38:29.827Z,70.41
2022-09-28T05:40:58.048Z,70.58
2022-09-28T05:43:26.028Z,70.78
2022-09-28T05:45:55.829Z,70.92
2022-09-28T05:48:24.072Z,70.95
2022-09-28T05:50:52.215Z,70.90
2022-09-28T05:53:20.188Z,70.92
2022-09-28T05:55:48.513Z,71.01
2022-09-28T05:58:16.955Z,70.92
2022-09-28T06:00:44.762Z,71.08
2022-09-28T06:03:13.483Z,71.04
2022-09-28T06:05:41.482Z,70.96
2022-09-28T06:08:10.235Z,70.85
2022-09-28T06:10:38.828Z,70.90
2022-09-28T06:13:07.202Z,70.91
2022-09-28T06:15:36.100Z,70.64
2022-09-28T06:18:05.035Z,70.41
2022-09-28T06:20:34.009Z,70.73
2022-09-28T06:23:02.065Z,70.62
2022-09-28T06:25:30.060Z,70.37
2022-09-28T06:27:58.828Z,70.24
2022-09-28T06:30:27.835Z,70.29
2022-09-28T06:32:56.438Z,69.88
2022-09-28T06:35:25.529Z,69.77
2022-09-28T06:37:53.440Z,69.40
2022-09-28T06:40:21.699Z,69.10
2022-09-28T06:42:55.996Z,69.12
2022-09-28T06:45:24.840Z,69.30
2022-09-28T06:47:56.867Z,69.30
2022-09-28T06:50:25.901Z,69.30
2022-09-28T06:52:54.381Z,68.69
2022-09-28T06:55:22.576Z,68.43
2022-09-28T06:57:58.378Z,68.63
2022-09-28T07:00:26.647Z,68.34
2022-09-28T07:02:54.820Z,68.10
2022-09-28T07:05:26.723Z,68.03
2022-09-28T07:07:55.283Z,67.73
2022-09-28T07:10:23.801Z,67.62
2022-09-28T07:12:51.978Z,67.43
2022-09-28T07:15:20.745Z,66.97
2022-09-28T07:18:00.571Z,66.75
2022-09-28T07:20:31.226Z,66.56
2022-09-28T07:23:12.344Z,66.37
2022-09-28T07:25:47.119Z,65.90
2022-09-28T07:28:15.500Z,65.70
2022-09-28T07:30:44.233Z,66.35
2022-09-28T07:33:13.802Z,65.81
2022-09-28T07:35:42.367Z,65.97
2022-09-28T07:38:10.870Z,65.54
2022-09-28T07:40:56.936Z,65.34
2022-09-28T07:43:24.971Z,65.59
2022-09-28T07:45:54.313Z,64.96
2022-09-28T07:48:22.940Z,64.71
2022-09-28T07:50:51.909Z,64.70
2022-09-28T07:53:20.037Z,64.26
2022-09-28T07:55:51.637Z,64.02
2022-09-28T07:58:19.762Z,64.08
2022-09-28T08:00:48.523Z,63.81
2022-09-28T08:03:17.183Z,63.84
2022-09-28T08:05:46.290Z,63.70
2022-09-28T08:08:14.350Z,63.25
2022-09-28T08:10:46.586Z,63.08
2022-09-28T08:13:15.824Z,62.88
2022-09-28T08:15:43.833Z,62.69
2022-09-28T08:18:11.775Z,62.88
2022-09-28T08:20:57.875Z,62.69
2022-09-28T08:23:25.844Z,62.75
2022-09-28T08:25:54.691Z,62.24
2022-09-28T08:28:23.208Z,62.06
2022-09-28T08:30:51.636Z,61.84
2022-09-28T08:33:20.672Z,61.95
2022-09-28T08:35:54.920Z,61.52
2022-09-28T08:38:22.941Z,60.99
2022-09-28T08:40:57.549Z,60.86
2022-09-28T08:43:36.298Z,60.67
2022-09-28T08:46:04.430Z,60.70
2022-09-28T08:48:56.330Z,60.41
2022-09-28T08:51:38.299Z,59.96
2022-09-28T08:54:11.946Z,60.30
2022-09-28T08:56:43.184Z,59.88
2022-09-28T08:59:13.665Z,59.79
2022-09-28T09:01:45.143Z,60.03
2022-09-28T09:04:13.348Z,59.85
2022-09-28T09:06:53.240Z,59.42
2022-09-28T09:09:26.432Z,58.78
2022-09-28T09:12:00.299Z,58.77
2022-09-28T09:14:37.440Z,58.74
2022-09-28T09:17:10.417Z,58.83
2022-09-28T09:19:44.767Z,58.37
2022-09-28T09:22:16.192Z,57.80
2022-09-28T09:24:48.599Z,57.62
2022-09-28T09:27:32.432Z,57.95
2022-09-28T09:30:06.118Z,57.65
2022-09-28T09:32:41.231Z,57.49
2022-09-28T09:35:23.213Z,57.39
2022-09-28T09:38:02.781Z,57.11
2022-09-28T09:40:40.434Z,56.67
2022-09-28T09:43:20.829Z,56.54
2022-09-28T09:45:56.445Z,56.10
2022-09-28T09:48:27.006Z,56.07
2022-09-28T09:50:57.692Z,55.65
2022-09-28T09:53:29.292Z,55.63
2022-09-28T09:55:59.858Z,54.95
2022-09-28T09:58:31.084Z,55.26
2022-09-28T10:01:04.634Z,55.06
2022-09-28T10:03:34.690Z,54.71
2022-09-28T10:06:05.726Z,53.29
2022-09-28T10:08:35.145Z,53.61
2022-09-28T10:11:07.092Z,53.90
2022-09-28T10:13:35.080Z,53.81
2022-09-28T10:16:03.151Z,53.78
2022-09-28T10:18:31.304Z,53.50
2022-09-28T10:20:59.214Z,53.17
2022-09-28T10:23:29.620Z,52.69
2022-09-28T10:26:02.186Z,52.63
2022-09-28T10:28:33.953Z,52.55
2022-09-28T10:31:21.785Z,51.75
2022-09-28T10:33:53.039Z,52.28
2022-09-28T10:36:20.960Z,52.10
2022-09-28T10:38:49.474Z,51.91
2022-09-28T10:41:17.853Z,52.09
2022-09-28T10:44:05.453Z,51.73
2022-09-28T10:46:34.303Z,51.01
2022-09-28T10:49:02.796Z,51.20
2022-09-28T10:51:43.729Z,51.33
2022-09-28T10:54:15.807Z,50.87
2022-09-28T10:56:44.690Z,50.07
2022-09-28T10:59:38.160Z,50.20
2022-09-28T11:02:16.931Z,50.21
2022-09-28T11:04:50.149Z,50.22
2022-09-28T11:07:19.676Z,49.99
2022-09-28T11:09:49.232Z,49.59
2022-09-28T11:12:18.467Z,49.50
2022-09-28T11:14:52.116Z,49.59
2022-09-28T11:17:26.701Z,49.13
2022-09-28T11:19:55.582Z,48.78
2022-09-28T11:22:25.620Z,48.78
2022-09-28T11:25:12.420Z,48.67
2022-09-28T11:27:40.476Z,48.61
2022-09-28T11:30:21.108Z,48.60
2022-09-28T11:32:50.199Z,48.29
2022-09-28T11:35:20.352Z,48.10
2022-09-28T11:37:54.418Z,48.17
2022-09-28T11:40:29.460Z,47.89
2022-09-28T11:45:47.586Z,47.29
2022-09-28T11:48:17.733Z,47.41
2022-09-28T11:50:48.567Z,47.17
2022-09-28T11:53:22.954Z,47.21
2022-09-28T11:55:54.620Z,46.97
2022-09-28T11:58:26.215Z,46.77
2022-09-28T12:00:59.422Z,46.90
2022-09-28T12:03:32.839Z,46.60
2022-09-28T12:06:02.876Z,46.79
2022-09-28T12:08:34.622Z,46.43
2022-09-28T12:11:09.267Z,46.19
2022-09-28T12:13:40.077Z,46.24
2022-09-28T12:16:32.677Z,45.99
2022-09-28T12:19:04.235Z,45.92
2022-09-28T12:21:36.342Z,45.83
2022-09-28T12:24:06.852Z,45.93
2022-09-28T12:26:40.427Z,45.93
2022-09-28T12:29:13.903Z,45.80
2022-09-28T12:31:45.892Z,45.49
2022-09-28T12:34:14.659Z,45.47
2022-09-28T12:36:49.520Z,45.36
2022-09-28T12:39:40.950Z,45.58
2022-09-28T12:42:24.928Z,45.46
2022-09-28T12:44:59.751Z,45.27
2022-09-28T12:47:45.575Z,45.29
2022-09-28T12:50:38.742Z,45.39
2022-09-28T12:53:18.791Z,45.15
2022-09-28T12:55:57.953Z,45.08
2022-09-28T12:58:33.334Z,44.39
2022-09-28T13:01:05.601Z,44.52
2022-09-28T13:03:45.042Z,44.68
2022-09-28T13:06:24.698Z,44.57
2022-09-28T13:09:09.248Z,44.55
2022-09-28T13:11:41.563Z,44.29
2022-09-28T13:14:29.130Z,44.07
2022-09-28T13:17:00.913Z,44.10
2022-09-28T13:19:33.464Z,43.77
2022-09-28T13:22:09.544Z,43.99
2022-09-28T13:24:43.553Z,44.01
2022-09-28T13:27:14.983Z,43.94
2022-09-28T13:29:43.274Z,43.81
2022-09-28T13:32:12.067Z,43.82
2022-09-28T13:34:40.502Z,43.62
2022-09-28T13:37:10.663Z,43.33
2022-09-28T13:39:48.159Z,43.45
2022-09-28T13:42:25.237Z,43.44
2022-09-28T13:45:01.755Z,43.50
2022-09-28T13:47:44.301Z,43.50
2022-09-28T13:50:19.646Z,43.36
2022-09-28T13:52:52.859Z,43.18
2022-09-28T13:55:32.412Z,42.96
2022-09-28T13:58:03.931Z,43.32
2022-09-28T14:00:36.528Z,43.23
2022-09-28T14:03:24.928Z,43.26
2022-09-28T14:06:10.992Z,43.31
2022-09-28T14:08:44.077Z,43.33
2022-09-28T14:11:40.161Z,43.31
2022-09-28T14:14:34.981Z,43.03
2022-09-28T14:17:20.705Z,42.92
2022-09-28T14:19:52.837Z,43.00
2022-09-28T14:22:25.518Z,43.00
2022-09-28T14:25:02.434Z,43.02
2022-09-28T14:27:48.707Z,42.71
2022-09-28T14:30:24.036Z,42.75
2022-09-28T14:32:54.957Z,42.92
2022-09-28T14:35:30.719Z,42.63
2022-09-28T14:38:24.032Z,42.99
2022-09-28T14:41:12.116Z,42.70
2022-09-28T14:44:04.316Z,42.55
2022-09-28T14:46:36.510Z,42.67
2022-09-28T14:49:05.617Z,42.70
2022-09-28T14:51:57.568Z,42.66
2022-09-28T14:54:26.516Z,42.42
2022-09-28T14:57:07.511Z,42.77
2022-09-28T14:59:42.353Z,42.67
2022-09-28T15:02:14.828Z,42.88
2022-09-28T15:04:45.906Z,42.72
2022-09-28T15:07:20.854Z,42.89
2022-09-28T15:09:50.139Z,42.85
2022-09-28T15:12:19.525Z,42.90
2022-09-28T15:14:50.715Z,42.73
2022-09-28T15:17:20.651Z,42.75
2022-09-28T15:19:51.692Z,42.72
2022-09-28T15:22:20.704Z,42.81
2022-09-28T15:24:59.964Z,42.55
2022-09-28T15:27:35.573Z,42.49
2022-09-28T15:30:17.671Z,42.58
2022-09-28T15:32:45.606Z,42.57
2022-09-28T15:35:16.697Z,42.80
2022-09-28T15:37:44.803Z,42.94
2022-09-28T15:40:13.842Z,42.79
2022-09-28T15:42:41.710Z,42.86
2022-09-28T15:45:26.091Z,42.82
2022-09-28T15:48:16.556Z,42.92
2022-09-28T15:50:56.427Z,42.92
2022-09-28T15:53:24.710Z,42.89
2022-09-28T15:55:54.211Z,42.87
2022-09-28T15:58:23.819Z,43.06
2022-09-28T16:01:11.894Z,43.14
2022-09-28T16:03:39.827Z,43.19
2022-09-28T16:06:08.730Z,43.17
2022-09-28T16:08:42.256Z,43.43
2022-09-28T16:11:13.257Z,43.26
2022-09-28T16:13:48.089Z,43.35
2022-09-28T16:16:16.740Z,43.41
2022-09-28T16:18:48.732Z,43.43
2022-09-28T16:21:33.547Z,43.47
2022-09-28T16:24:01.650Z,43.53
2022-09-28T16:26:31.981Z,43.60
2022-09-28T16:29:01.488Z,43.50
2022-09-28T16:31:33.798Z,43.60
2022-09-28T16:34:11.543Z,43.67
2022-09-28T16:36:43.136Z,43.88
2022-09-28T16:39:12.059Z,43.86
2022-09-28T16:41:43.714Z,43.85
2022-09-28T16:44:15.026Z,43.98
2022-09-28T16:46:43.691Z,44.05
2022-09-28T16:49:12.804Z,44.17
2022-09-28T16:51:40.641Z,44.10
2022-09-28T16:54:31.654Z,44.45
2022-09-28T16:56:59.659Z,44.61
2022-09-28T16:59:27.729Z,44.86
2022-09-28T17:01:56.427Z,45.04
2022-09-28T17:04:24.624Z,45.17
2022-09-28T17:06:53.864Z,45.29
2022-09-28T17:09:21.951Z,45.40
2022-09-28T17:11:55.032Z,45.55
2022-09-28T17:14:24.026Z,45.73
2022-09-28T17:17:11.577Z,45.80
2022-09-28T17:19:41.673Z,45.96
2022-09-28T17:22:09.935Z,46.16
2022-09-28T17:24:37.810Z,46.22
2022-09-28T17:27:06.700Z,46.33
2022-09-28T17:29:34.658Z,46.50
2022-09-28T17:32:04.488Z,46.54
2022-09-28T17:34:32.469Z,46.57
2022-09-28T17:37:00.456Z,46.95
2022-09-28T17:39:28.299Z,46.95
2022-09-28T17:41:56.228Z,47.14
2022-09-28T17:44:24.239Z,47.35
2022-09-28T17:46:53.334Z,47.40
2022-09-28T17:49:21.201Z,47.49
2022-09-28T17:51:49.923Z,47.43
2022-09-28T17:54:20.341Z,47.70
2022-09-28T17:56:48.560Z,47.81
2022-09-28T17:59:17.843Z,47.80
2022-09-28T18:01:47.516Z,47.93
2022-09-28T18:04:33.303Z,48.03
2022-09-28T18:07:03.481Z,48.26
2022-09-28T18:09:31.370Z,48.27
2022-09-28T18:12:00.695Z,48.40
2022-09-28T18:14:28.625Z,48.57
2022-09-28T18:16:56.571Z,48.65
2022-09-28T18:19:28.615Z,48.63
2022-09-28T18:22:00.734Z,48.91
2022-09-28T18:24:28.659Z,49.14
2022-09-28T18:26:56.588Z,49.10
2022-09-28T18:29:24.412Z,49.16
2022-09-28T18:31:52.503Z,49.20
2022-09-28T18:34:20.365Z,49.24
2022-09-28T18:36:48.288Z,49.32
2022-09-28T18:39:16.217Z,49.44
2022-09-28T18:41:44.127Z,49.61
2022-09-28T18:44:12.035Z,49.75
2022-09-28T18:46:42.008Z,49.83
2022-09-28T18:49:10.111Z,49.90
2022-09-28T18:51:38.053Z,50.01
2022-09-28T18:54:07.114Z,50.20
2022-09-28T18:56:37.477Z,50.17
2022-09-28T18:59:11.135Z,50.30
2022-09-28T19:01:41.666Z,50.55
2022-09-28T19:04:10.853Z,50.63
2022-09-28T19:06:40.377Z,50.98
2022-09-28T19:09:08.737Z,50.87
2022-09-28T19:11:36.821Z,51.04
2022-09-28T19:14:04.804Z,51.18
2022-09-28T19:16:33.510Z,51.06
2022-09-28T19:19:02.176Z,50.95
2022-09-28T19:21:30.630Z,50.64
2022-09-28T19:24:01.062Z,50.58
2022-09-28T19:26:28.992Z,50.92
2022-09-28T19:28:57.410Z,50.69
2022-09-28T19:31:26.172Z,50.77
2022-09-28T19:33:54.060Z,50.95
2022-09-28T19:36:23.372Z,51.12
2022-09-28T19:38:51.826Z,51.29
2022-09-28T19:41:39.056Z,51.41
2022-09-28T19:44:09.700Z,51.34
2022-09-28T19:46:38.898Z,51.52
2022-09-28T19:49:07.788Z,51.61
2022-09-28T19:51:37.176Z,51.72
2022-09-28T19:54:10.686Z,51.98
2022-09-28T19:56:38.472Z,52.02
2022-09-28T19:59:06.336Z,51.94
2022-09-28T20:01:34.530Z,52.00
2022-09-28T20:04:02.855Z,51.95
2022-09-28T20:06:31.456Z,52.02
2022-09-28T20:08:59.683Z,52.21
2022-09-28T20:11:30.909Z,52.16
2022-09-28T20:13:59.754Z,52.36
2022-09-28T20:16:28.549Z,52.25
2022-09-28T20:19:00.064Z,52.31
2022-09-28T20:21:28.080Z,52.58
2022-09-28T20:23:56.865Z,52.42
2022-09-28T20:26:25.556Z,52.38
2022-09-28T20:28:54.119Z,52.59
2022-09-28T20:31:23.280Z,52.52
2022-09-28T20:33:51.895Z,52.54
2022-09-28T20:36:21.228Z,52.81
2022-09-28T20:38:49.990Z,52.86
2022-09-28T20:41:18.892Z,52.60
2022-09-28T20:43:50.643Z,52.62
2022-09-28T20:46:20.703Z,52.31
2022-09-28T20:48:49.658Z,52.29
2022-09-28T20:51:18.738Z,52.36
2022-09-28T20:53:48.060Z,52.54
2022-09-28T20:56:17.764Z,52.30
2022-09-28T20:58:45.969Z,52.63
2022-09-28T21:01:16.723Z,52.92
2022-09-28T21:03:47.485Z,53.12
2022-09-28T21:06:16.148Z,53.03
2022-09-28T21:08:44.773Z,53.06
2022-09-28T21:11:13.868Z,53.11
2022-09-28T21:13:42.519Z,53.28
2022-09-28T21:16:11.340Z,53.18
2022-09-28T21:18:39.571Z,53.51
2022-09-28T21:21:08.002Z,53.45
2022-09-28T21:23:36.042Z,53.55
2022-09-28T21:26:05.579Z,53.79
2022-09-28T21:28:34.505Z,53.69
2022-09-28T21:31:02.882Z,53.68
2022-09-28T21:33:30.897Z,53.82
2022-09-28T21:36:01.252Z,53.95
2022-09-28T21:38:29.315Z,54.16
2022-09-28T21:40:57.975Z,53.79
2022-09-28T21:43:26.586Z,53.97
2022-09-28T21:45:55.524Z,54.22
2022-09-28T21:48:24.429Z,53.94
2022-09-28T21:50:56.343Z,54.35
2022-09-28T21:53:25.142Z,54.38
2022-09-28T21:55:53.702Z,54.44
2022-09-28T21:58:22.921Z,54.40
2022-09-28T22:00:58.178Z,54.52
2022-09-28T22:03:27.019Z,54.39
2022-09-28T22:05:54.796Z,54.52
2022-09-28T22:08:22.982Z,54.51
2022-09-28T22:11:00.190Z,54.57
2022-09-28T22:13:28.758Z,54.82
2022-09-28T22:15:57.276Z,54.66
2022-09-28T22:18:26.102Z,54.80
2022-09-28T22:20:59.208Z,54.84
2022-09-28T22:23:27.276Z,55.03
2022-09-28T22:25:58.924Z,54.95
2022-09-28T22:28:26.860Z,54.92
2022-09-28T22:30:55.027Z,55.24
2022-09-28T22:33:23.247Z,55.16
2022-09-28T22:35:51.205Z,55.45
2022-09-28T22:38:19.268Z,55.42
2022-09-28T22:40:50.356Z,55.57
2022-09-28T22:43:18.755Z,55.36
2022-09-28T22:45:46.773Z,55.59
2022-09-28T22:48:14.743Z,55.54
2022-09-28T22:50:48.924Z,55.68
2022-09-28T22:53:16.873Z,55.39
2022-09-28T22:55:44.929Z,55.21
2022-09-28T22:58:13.095Z,55.16
2022-09-28T23:00:41.112Z,55.35
2022-09-28T23:03:09.301Z,55.22
2022-09-28T23:05:37.299Z,55.13
2022-09-28T23:08:05.133Z,55.11
2022-09-28T23:10:33.172Z,54.93
2022-09-28T23:13:00.951Z,54.90
2022-09-28T23:15:29.359Z,54.92
2022-09-28T23:17:57.341Z,54.95
2022-09-28T23:20:25.317Z,55.68
2022-09-28T23:22:53.263Z,55.61
2022-09-28T23:25:21.172Z,55.93
2022-09-28T23:27:49.826Z,56.03
2022-09-28T23:30:19.432Z,56.19
2022-09-28T23:32:47.332Z,56.22
2022-09-28T23:35:15.306Z,56.28
2022-09-28T23:37:43.172Z,56.13
2022-09-28T23:40:11.170Z,55.70
2022-09-28T23:42:39.037Z,55.50
2022-09-28T23:45:07.949Z,55.30
2022-09-28T23:47:36.825Z,55.42
2022-09-28T23:50:05.458Z,55.18
2022-09-28T23:52:33.524Z,55.13
2022-09-28T23:55:01.353Z,55.12
2022-09-28T23:57:29.229Z,55.25
2022-09-28T23:59:56.993Z,55.67
